sensor_id;sensor_type;location;lat;lon;timestamp;P1;durP1;ratioP1;P2;durP2;ratioP2
75542;SDS011;64129;53.508;10.476;2023-07-28T00:00:36;5.78;;;4.88;;
75542;SDS011;64129;53.508;10.476;2023-07-28T00:03:02;4.75;;;4.25;;
75542;SDS011;64129;53.508;10.476;2023-07-28T00:05:29;6.88;;;5.03;;
75542;SDS011;64129;53.508;10.476;2023-07-28T00:07:55;6.15;;;4.47;;
75542;SDS011;64129;53.508;10.476;2023-07-28T00:10:22;6.10;;;4.80;;
75542;SDS011;64129;53.508;10.476;2023-07-28T00:12:49;4.45;;;4.05;;
75542;SDS011;64129;53.508;10.476;2023-07-28T00:15:15;7.25;;;4.15;;
75542;SDS011;64129;53.508;10.476;2023-07-28T00:17:42;4.85;;;4.25;;
75542;SDS011;64129;53.508;10.476;2023-07-28T00:20:09;5.57;;;4.35;;
75542;SDS011;64129;53.508;10.476;2023-07-28T00:22:36;5.85;;;4.68;;
75542;SDS011;64129;53.508;10.476;2023-07-28T00:25:02;5.80;;;4.68;;
75542;SDS011;64129;53.508;10.476;2023-07-28T00:27:29;5.00;;;4.18;;
75542;SDS011;64129;53.508;10.476;2023-07-28T00:29:56;5.25;;;4.25;;
75542;SDS011;64129;53.508;10.476;2023-07-28T00:32:22;5.07;;;4.53;;
75542;SDS011;64129;53.508;10.476;2023-07-28T00:34:49;4.38;;;3.97;;
75542;SDS011;64129;53.508;10.476;2023-07-28T00:37:16;4.30;;;3.80;;
75542;SDS011;64129;53.508;10.476;2023-07-28T00:39:43;5.80;;;3.75;;
75542;SDS011;64129;53.508;10.476;2023-07-28T00:42:10;4.10;;;3.67;;
75542;SDS011;64129;53.508;10.476;2023-07-28T00:44:36;4.85;;;4.10;;
75542;SDS011;64129;53.508;10.476;2023-07-28T00:47:03;4.13;;;3.72;;
75542;SDS011;64129;53.508;10.476;2023-07-28T00:49:29;4.57;;;3.92;;
75542;SDS011;64129;53.508;10.476;2023-07-28T00:51:56;4.80;;;3.75;;
75542;SDS011;64129;53.508;10.476;2023-07-28T00:54:23;5.50;;;4.25;;
75542;SDS011;64129;53.508;10.476;2023-07-28T00:56:50;4.13;;;3.67;;
75542;SDS011;64129;53.508;10.476;2023-07-28T00:59:17;3.78;;;3.38;;
75542;SDS011;64129;53.508;10.476;2023-07-28T01:01:44;4.32;;;3.70;;
75542;SDS011;64129;53.508;10.476;2023-07-28T01:04:11;3.70;;;3.28;;
75542;SDS011;64129;53.508;10.476;2023-07-28T01:06:46;4.18;;;3.75;;
75542;SDS011;64129;53.508;10.476;2023-07-28T01:09:21;5.00;;;3.75;;
75542;SDS011;64129;53.508;10.476;2023-07-28T01:11:54;8.35;;;4.43;;
75542;SDS011;64129;53.508;10.476;2023-07-28T01:14:22;4.80;;;4.32;;
75542;SDS011;64129;53.508;10.476;2023-07-28T01:16:49;5.80;;;3.75;;
75542;SDS011;64129;53.508;10.476;2023-07-28T01:19:20;8.85;;;4.63;;
75542;SDS011;64129;53.508;10.476;2023-07-28T01:21:54;6.80;;;4.60;;
75542;SDS011;64129;53.508;10.476;2023-07-28T01:25:11;6.40;;;4.15;;
75542;SDS011;64129;53.508;10.476;2023-07-28T01:27:34;7.05;;;4.53;;
75542;SDS011;64129;53.508;10.476;2023-07-28T01:30:03;5.07;;;3.67;;
75542;SDS011;64129;53.508;10.476;2023-07-28T01:32:30;4.93;;;4.30;;
75542;SDS011;64129;53.508;10.476;2023-07-28T01:34:57;4.72;;;4.00;;
75542;SDS011;64129;53.508;10.476;2023-07-28T01:37:24;5.50;;;3.97;;
75542;SDS011;64129;53.508;10.476;2023-07-28T01:39:50;4.05;;;3.65;;
75542;SDS011;64129;53.508;10.476;2023-07-28T01:42:17;4.28;;;3.70;;
75542;SDS011;64129;53.508;10.476;2023-07-28T01:44:43;4.65;;;4.15;;
75542;SDS011;64129;53.508;10.476;2023-07-28T01:47:10;4.13;;;3.72;;
75542;SDS011;64129;53.508;10.476;2023-07-28T01:49:36;4.50;;;3.35;;
75542;SDS011;64129;53.508;10.476;2023-07-28T01:52:03;3.75;;;3.40;;
75542;SDS011;64129;53.508;10.476;2023-07-28T01:54:30;3.63;;;3.20;;
75542;SDS011;64129;53.508;10.476;2023-07-28T01:56:56;3.47;;;3.13;;
75542;SDS011;64129;53.508;10.476;2023-07-28T01:59:23;3.20;;;2.88;;
75542;SDS011;64129;53.508;10.476;2023-07-28T02:01:50;3.25;;;2.92;;
75542;SDS011;64129;53.508;10.476;2023-07-28T02:04:16;4.05;;;3.10;;
75542;SDS011;64129;53.508;10.476;2023-07-28T02:06:43;4.18;;;2.80;;
75542;SDS011;64129;53.508;10.476;2023-07-28T02:09:09;3.63;;;2.97;;
75542;SDS011;64129;53.508;10.476;2023-07-28T02:11:36;3.72;;;3.17;;
75542;SDS011;64129;53.508;10.476;2023-07-28T02:14:02;3.70;;;2.90;;
75542;SDS011;64129;53.508;10.476;2023-07-28T02:16:29;4.07;;;3.30;;
75542;SDS011;64129;53.508;10.476;2023-07-28T02:18:57;3.35;;;3.03;;
75542;SDS011;64129;53.508;10.476;2023-07-28T02:21:23;3.00;;;2.53;;
75542;SDS011;64129;53.508;10.476;2023-07-28T02:23:50;3.38;;;2.97;;
75542;SDS011;64129;53.508;10.476;2023-07-28T02:26:16;3.97;;;3.40;;
75542;SDS011;64129;53.508;10.476;2023-07-28T02:28:44;3.47;;;3.08;;
75542;SDS011;64129;53.508;10.476;2023-07-28T02:31:12;3.05;;;2.75;;
75542;SDS011;64129;53.508;10.476;2023-07-28T02:33:39;4.90;;;2.88;;
75542;SDS011;64129;53.508;10.476;2023-07-28T02:36:05;2.97;;;2.47;;
75542;SDS011;64129;53.508;10.476;2023-07-28T02:38:32;3.60;;;2.53;;
75542;SDS011;64129;53.508;10.476;2023-07-28T02:40:58;4.18;;;3.30;;
75542;SDS011;64129;53.508;10.476;2023-07-28T02:43:25;3.15;;;2.70;;
75542;SDS011;64129;53.508;10.476;2023-07-28T02:45:56;3.63;;;2.55;;
75542;SDS011;64129;53.508;10.476;2023-07-28T02:48:23;4.53;;;3.13;;
75542;SDS011;64129;53.508;10.476;2023-07-28T02:50:50;4.45;;;3.35;;
75542;SDS011;64129;53.508;10.476;2023-07-28T02:53:17;4.57;;;3.83;;
75542;SDS011;64129;53.508;10.476;2023-07-28T02:55:45;5.15;;;3.38;;
75542;SDS011;64129;53.508;10.476;2023-07-28T02:58:13;3.90;;;3.42;;
75542;SDS011;64129;53.508;10.476;2023-07-28T03:00:40;3.47;;;3.10;;
75542;SDS011;64129;53.508;10.476;2023-07-28T03:03:08;4.05;;;3.45;;
75542;SDS011;64129;53.508;10.476;2023-07-28T03:05:40;3.70;;;3.25;;
75542;SDS011;64129;53.508;10.476;2023-07-28T03:08:20;4.13;;;3.40;;
75542;SDS011;64129;53.508;10.476;2023-07-28T03:10:47;3.95;;;3.10;;
75542;SDS011;64129;53.508;10.476;2023-07-28T03:13:14;4.18;;;3.28;;
75542;SDS011;64129;53.508;10.476;2023-07-28T03:15:40;3.90;;;2.90;;
75542;SDS011;64129;53.508;10.476;2023-07-28T03:18:07;5.28;;;3.35;;
75542;SDS011;64129;53.508;10.476;2023-07-28T03:20:33;3.72;;;3.28;;
75542;SDS011;64129;53.508;10.476;2023-07-28T03:23:00;6.78;;;4.15;;
75542;SDS011;64129;53.508;10.476;2023-07-28T03:25:27;6.43;;;4.18;;
75542;SDS011;64129;53.508;10.476;2023-07-28T03:27:53;5.47;;;4.07;;
75542;SDS011;64129;53.508;10.476;2023-07-28T03:30:20;4.40;;;3.70;;
75542;SDS011;64129;53.508;10.476;2023-07-28T03:32:46;4.35;;;3.45;;
75542;SDS011;64129;53.508;10.476;2023-07-28T03:35:13;5.32;;;3.90;;
75542;SDS011;64129;53.508;10.476;2023-07-28T03:37:45;7.53;;;3.88;;
75542;SDS011;64129;53.508;10.476;2023-07-28T03:40:12;3.50;;;3.00;;
75542;SDS011;64129;53.508;10.476;2023-07-28T03:42:51;3.33;;;2.80;;
75542;SDS011;64129;53.508;10.476;2023-07-28T03:45:18;3.75;;;2.83;;
75542;SDS011;64129;53.508;10.476;2023-07-28T03:47:45;4.63;;;2.90;;
75542;SDS011;64129;53.508;10.476;2023-07-28T03:50:11;2.97;;;2.78;;
75542;SDS011;64129;53.508;10.476;2023-07-28T03:52:38;2.15;;;1.95;;
75542;SDS011;64129;53.508;10.476;2023-07-28T03:55:04;4.32;;;2.00;;
75542;SDS011;64129;53.508;10.476;2023-07-28T03:57:31;3.50;;;2.10;;
75542;SDS011;64129;53.508;10.476;2023-07-28T03:59:58;2.08;;;1.67;;
75542;SDS011;64129;53.508;10.476;2023-07-28T04:02:24;2.45;;;1.95;;
75542;SDS011;64129;53.508;10.476;2023-07-28T04:04:54;5.15;;;1.73;;
75542;SDS011;64129;53.508;10.476;2023-07-28T04:07:21;2.90;;;1.90;;
75542;SDS011;64129;53.508;10.476;2023-07-28T04:09:48;2.00;;;1.80;;
75542;SDS011;64129;53.508;10.476;2023-07-28T04:12:15;2.33;;;1.83;;
75542;SDS011;64129;53.508;10.476;2023-07-28T04:14:41;2.30;;;2.00;;
75542;SDS011;64129;53.508;10.476;2023-07-28T04:17:08;2.67;;;1.73;;
75542;SDS011;64129;53.508;10.476;2023-07-28T04:19:36;2.17;;;1.98;;
75542;SDS011;64129;53.508;10.476;2023-07-28T04:22:03;6.95;;;1.83;;
75542;SDS011;64129;53.508;10.476;2023-07-28T04:24:31;2.35;;;2.05;;
75542;SDS011;64129;53.508;10.476;2023-07-28T04:26:57;3.75;;;1.73;;
75542;SDS011;64129;53.508;10.476;2023-07-28T04:29:24;2.65;;;1.90;;
75542;SDS011;64129;53.508;10.476;2023-07-28T04:31:52;2.80;;;1.77;;
75542;SDS011;64129;53.508;10.476;2023-07-28T04:34:26;2.10;;;1.90;;
75542;SDS011;64129;53.508;10.476;2023-07-28T04:37:03;2.97;;;1.90;;
75542;SDS011;64129;53.508;10.476;2023-07-28T04:39:41;2.03;;;1.83;;
75542;SDS011;64129;53.508;10.476;2023-07-28T04:42:09;2.63;;;2.05;;
75542;SDS011;64129;53.508;10.476;2023-07-28T04:44:39;2.30;;;2.00;;
75542;SDS011;64129;53.508;10.476;2023-07-28T04:47:06;2.47;;;1.80;;
75542;SDS011;64129;53.508;10.476;2023-07-28T04:49:33;3.88;;;1.90;;
75542;SDS011;64129;53.508;10.476;2023-07-28T04:52:06;2.65;;;2.20;;
75542;SDS011;64129;53.508;10.476;2023-07-28T04:54:53;5.63;;;1.90;;
75542;SDS011;64129;53.508;10.476;2023-07-28T04:57:20;2.15;;;1.90;;
75542;SDS011;64129;53.508;10.476;2023-07-28T04:59:46;2.17;;;1.77;;
75542;SDS011;64129;53.508;10.476;2023-07-28T05:02:13;2.15;;;1.95;;
75542;SDS011;64129;53.508;10.476;2023-07-28T05:04:39;2.10;;;1.90;;
75542;SDS011;64129;53.508;10.476;2023-07-28T05:07:06;1.70;;;1.60;;
75542;SDS011;64129;53.508;10.476;2023-07-28T05:09:33;2.42;;;1.88;;
75542;SDS011;64129;53.508;10.476;2023-07-28T05:11:59;2.83;;;1.83;;
75542;SDS011;64129;53.508;10.476;2023-07-28T05:14:31;2.47;;;1.63;;
75542;SDS011;64129;53.508;10.476;2023-07-28T05:16:57;1.65;;;1.55;;
75542;SDS011;64129;53.508;10.476;2023-07-28T05:19:47;2.53;;;1.92;;
75542;SDS011;64129;53.508;10.476;2023-07-28T05:22:33;2.53;;;2.30;;
75542;SDS011;64129;53.508;10.476;2023-07-28T05:25:00;1.63;;;1.52;;
75542;SDS011;64129;53.508;10.476;2023-07-28T05:27:29;2.15;;;1.92;;
75542;SDS011;64129;53.508;10.476;2023-07-28T05:29:56;3.28;;;1.80;;
75542;SDS011;64129;53.508;10.476;2023-07-28T05:32:23;2.10;;;1.90;;
75542;SDS011;64129;53.508;10.476;2023-07-28T05:35:03;2.08;;;1.88;;
75542;SDS011;64129;53.508;10.476;2023-07-28T05:37:30;3.50;;;2.15;;
75542;SDS011;64129;53.508;10.476;2023-07-28T05:39:57;3.05;;;2.38;;
75542;SDS011;64129;53.508;10.476;2023-07-28T05:42:23;2.85;;;2.65;;
75542;SDS011;64129;53.508;10.476;2023-07-28T05:44:50;3.05;;;2.75;;
75542;SDS011;64129;53.508;10.476;2023-07-28T05:47:19;3.03;;;2.72;;
75542;SDS011;64129;53.508;10.476;2023-07-28T05:49:46;5.97;;;2.83;;
75542;SDS011;64129;53.508;10.476;2023-07-28T05:52:13;3.55;;;2.35;;
75542;SDS011;64129;53.508;10.476;2023-07-28T05:54:40;2.53;;;1.95;;
75542;SDS011;64129;53.508;10.476;2023-07-28T05:57:06;2.42;;;1.77;;
75542;SDS011;64129;53.508;10.476;2023-07-28T05:59:33;2.53;;;2.33;;
75542;SDS011;64129;53.508;10.476;2023-07-28T06:01:59;2.38;;;2.10;;
75542;SDS011;64129;53.508;10.476;2023-07-28T06:04:39;3.13;;;2.90;;
75542;SDS011;64129;53.508;10.476;2023-07-28T06:07:05;1.75;;;1.65;;
75542;SDS011;64129;53.508;10.476;2023-07-28T06:09:33;9.48;;;2.10;;
75542;SDS011;64129;53.508;10.476;2023-07-28T06:12:00;2.65;;;2.40;;
75542;SDS011;64129;53.508;10.476;2023-07-28T06:14:27;2.10;;;2.00;;
75542;SDS011;64129;53.508;10.476;2023-07-28T06:19:22;2.25;;;2.00;;
75542;SDS011;64129;53.508;10.476;2023-07-28T06:21:51;2.70;;;2.17;;
75542;SDS011;64129;53.508;10.476;2023-07-28T06:24:18;2.17;;;1.92;;
75542;SDS011;64129;53.508;10.476;2023-07-28T06:26:45;2.47;;;2.28;;
75542;SDS011;64129;53.508;10.476;2023-07-28T06:29:12;2.30;;;2.10;;
75542;SDS011;64129;53.508;10.476;2023-07-28T06:31:38;2.53;;;2.33;;
75542;SDS011;64129;53.508;10.476;2023-07-28T06:34:06;2.75;;;2.10;;
75542;SDS011;64129;53.508;10.476;2023-07-28T06:36:33;1.98;;;1.60;;
75542;SDS011;64129;53.508;10.476;2023-07-28T06:38:59;1.77;;;1.30;;
75542;SDS011;64129;53.508;10.476;2023-07-28T06:41:26;2.25;;;2.05;;
75542;SDS011;64129;53.508;10.476;2023-07-28T06:43:59;1.88;;;1.77;;
75542;SDS011;64129;53.508;10.476;2023-07-28T06:46:26;2.60;;;2.10;;
75542;SDS011;64129;53.508;10.476;2023-07-28T06:48:53;1.90;;;1.77;;
75542;SDS011;64129;53.508;10.476;2023-07-28T06:51:19;2.40;;;2.20;;
75542;SDS011;64129;53.508;10.476;2023-07-28T06:53:46;2.10;;;2.00;;
75542;SDS011;64129;53.508;10.476;2023-07-28T06:56:13;1.70;;;1.60;;
75542;SDS011;64129;53.508;10.476;2023-07-28T06:58:39;2.45;;;2.00;;
75542;SDS011;64129;53.508;10.476;2023-07-28T07:01:06;2.83;;;1.92;;
75542;SDS011;64129;53.508;10.476;2023-07-28T07:03:32;2.53;;;2.33;;
75542;SDS011;64129;53.508;10.476;2023-07-28T07:05:59;2.70;;;2.50;;
75542;SDS011;64129;53.508;10.476;2023-07-28T07:08:25;2.30;;;2.10;;
75542;SDS011;64129;53.508;10.476;2023-07-28T07:10:53;2.10;;;1.90;;
75542;SDS011;64129;53.508;10.476;2023-07-28T07:13:20;2.13;;;1.98;;
75542;SDS011;64129;53.508;10.476;2023-07-28T07:15:46;3.17;;;2.35;;
75542;SDS011;64129;53.508;10.476;2023-07-28T07:18:13;1.60;;;1.50;;
75542;SDS011;64129;53.508;10.476;2023-07-28T07:20:40;1.85;;;1.75;;
75542;SDS011;64129;53.508;10.476;2023-07-28T07:23:07;2.20;;;2.05;;
75542;SDS011;64129;53.508;10.476;2023-07-28T07:25:33;1.80;;;1.70;;
75542;SDS011;64129;53.508;10.476;2023-07-28T07:28:02;1.92;;;1.73;;
75542;SDS011;64129;53.508;10.476;2023-07-28T07:30:31;2.47;;;2.25;;
75542;SDS011;64129;53.508;10.476;2023-07-28T07:32:59;2.03;;;1.92;;
75542;SDS011;64129;53.508;10.476;2023-07-28T07:35:26;2.03;;;1.92;;
75542;SDS011;64129;53.508;10.476;2023-07-28T07:37:53;2.30;;;2.10;;
75542;SDS011;64129;53.508;10.476;2023-07-28T07:40:19;2.15;;;1.80;;
75542;SDS011;64129;53.508;10.476;2023-07-28T07:42:47;1.80;;;1.70;;
75542;SDS011;64129;53.508;10.476;2023-07-28T07:45:14;1.50;;;1.40;;
75542;SDS011;64129;53.508;10.476;2023-07-28T07:47:41;2.13;;;1.40;;
75542;SDS011;64129;53.508;10.476;2023-07-28T07:50:09;1.63;;;1.50;;
75542;SDS011;64129;53.508;10.476;2023-07-28T07:52:37;1.65;;;1.25;;
75542;SDS011;64129;53.508;10.476;2023-07-28T07:55:06;1.50;;;1.40;;
75542;SDS011;64129;53.508;10.476;2023-07-28T07:57:33;1.15;;;1.08;;
75542;SDS011;64129;53.508;10.476;2023-07-28T07:59:59;1.10;;;1.00;;
75542;SDS011;64129;53.508;10.476;2023-07-28T08:02:26;1.25;;;1.15;;
75542;SDS011;64129;53.508;10.476;2023-07-28T08:04:53;1.30;;;1.20;;
75542;SDS011;64129;53.508;10.476;2023-07-28T08:07:20;0.90;;;0.90;;
75542;SDS011;64129;53.508;10.476;2023-07-28T08:09:47;1.40;;;1.00;;
75542;SDS011;64129;53.508;10.476;2023-07-28T08:12:13;1.83;;;1.20;;
75542;SDS011;64129;53.508;10.476;2023-07-28T08:14:41;6.50;;;1.02;;
75542;SDS011;64129;53.508;10.476;2023-07-28T08:17:08;1.38;;;1.20;;
75542;SDS011;64129;53.508;10.476;2023-07-28T08:19:35;1.10;;;1.00;;
75542;SDS011;64129;53.508;10.476;2023-07-28T08:22:02;1.08;;;1.08;;
75542;SDS011;64129;53.508;10.476;2023-07-28T08:24:31;1.42;;;1.33;;
75542;SDS011;64129;53.508;10.476;2023-07-28T08:26:58;1.33;;;1.23;;
75542;SDS011;64129;53.508;10.476;2023-07-28T08:29:25;1.30;;;1.20;;
75542;SDS011;64129;53.508;10.476;2023-07-28T08:31:52;1.00;;;1.00;;
75542;SDS011;64129;53.508;10.476;2023-07-28T08:34:18;1.10;;;1.00;;
75542;SDS011;64129;53.508;10.476;2023-07-28T08:36:45;1.30;;;1.20;;
75542;SDS011;64129;53.508;10.476;2023-07-28T08:39:12;1.40;;;1.30;;
75542;SDS011;64129;53.508;10.476;2023-07-28T08:41:38;1.30;;;1.20;;
75542;SDS011;64129;53.508;10.476;2023-07-28T08:44:06;1.30;;;1.20;;
75542;SDS011;64129;53.508;10.476;2023-07-28T08:46:33;1.02;;;1.02;;
75542;SDS011;64129;53.508;10.476;2023-07-28T08:49:01;1.60;;;1.42;;
75542;SDS011;64129;53.508;10.476;2023-07-28T08:51:28;1.45;;;1.35;;
75542;SDS011;64129;53.508;10.476;2023-07-28T08:53:55;1.63;;;1.40;;
75542;SDS011;64129;53.508;10.476;2023-07-28T08:56:22;1.35;;;1.13;;
75542;SDS011;64129;53.508;10.476;2023-07-28T08:58:54;1.50;;;1.20;;
75542;SDS011;64129;53.508;10.476;2023-07-28T09:01:24;1.20;;;1.10;;
75542;SDS011;64129;53.508;10.476;2023-07-28T09:03:50;1.38;;;1.27;;
75542;SDS011;64129;53.508;10.476;2023-07-28T09:06:17;1.20;;;1.10;;
75542;SDS011;64129;53.508;10.476;2023-07-28T09:08:44;0.90;;;0.90;;
75542;SDS011;64129;53.508;10.476;2023-07-28T09:11:11;1.75;;;1.13;;
75542;SDS011;64129;53.508;10.476;2023-07-28T09:13:40;1.25;;;1.15;;
75542;SDS011;64129;53.508;10.476;2023-07-28T09:16:17;1.40;;;1.30;;
75542;SDS011;64129;53.508;10.476;2023-07-28T09:18:45;1.20;;;1.10;;
75542;SDS011;64129;53.508;10.476;2023-07-28T09:21:20;1.40;;;1.20;;
75542;SDS011;64129;53.508;10.476;2023-07-28T09:23:48;1.42;;;1.33;;
75542;SDS011;64129;53.508;10.476;2023-07-28T09:26:15;1.20;;;1.05;;
75542;SDS011;64129;53.508;10.476;2023-07-28T09:28:42;0.90;;;0.90;;
75542;SDS011;64129;53.508;10.476;2023-07-28T09:31:09;1.30;;;1.13;;
75542;SDS011;64129;53.508;10.476;2023-07-28T09:33:37;1.35;;;1.25;;
75542;SDS011;64129;53.508;10.476;2023-07-28T09:36:13;1.52;;;1.42;;
75542;SDS011;64129;53.508;10.476;2023-07-28T09:38:44;1.52;;;1.42;;
75542;SDS011;64129;53.508;10.476;2023-07-28T09:41:11;1.40;;;1.30;;
75542;SDS011;64129;53.508;10.476;2023-07-28T09:43:38;1.58;;;1.48;;
75542;SDS011;64129;53.508;10.476;2023-07-28T09:46:07;1.27;;;1.17;;
75542;SDS011;64129;53.508;10.476;2023-07-28T09:48:34;1.42;;;1.33;;
75542;SDS011;64129;53.508;10.476;2023-07-28T09:51:22;1.30;;;1.20;;
75542;SDS011;64129;53.508;10.476;2023-07-28T09:53:58;1.58;;;1.48;;
75542;SDS011;64129;53.508;10.476;2023-07-28T09:56:31;1.63;;;1.38;;
75542;SDS011;64129;53.508;10.476;2023-07-28T09:58:59;1.92;;;1.15;;
75542;SDS011;64129;53.508;10.476;2023-07-28T10:01:30;1.65;;;1.55;;
75542;SDS011;64129;53.508;10.476;2023-07-28T10:03:57;1.85;;;1.38;;
75542;SDS011;64129;53.508;10.476;2023-07-28T10:06:24;1.80;;;1.30;;
75542;SDS011;64129;53.508;10.476;2023-07-28T10:08:52;1.58;;;1.35;;
75542;SDS011;64129;53.508;10.476;2023-07-28T10:11:18;1.95;;;1.20;;
75542;SDS011;64129;53.508;10.476;2023-07-28T10:13:47;1.35;;;1.15;;
75542;SDS011;64129;53.508;10.476;2023-07-28T10:16:15;1.33;;;1.23;;
75542;SDS011;64129;53.508;10.476;2023-07-28T10:18:42;1.15;;;1.15;;
75542;SDS011;64129;53.508;10.476;2023-07-28T10:21:18;1.40;;;1.30;;
75542;SDS011;64129;53.508;10.476;2023-07-28T10:23:44;1.40;;;1.25;;
75542;SDS011;64129;53.508;10.476;2023-07-28T10:26:11;1.30;;;1.13;;
75542;SDS011;64129;53.508;10.476;2023-07-28T10:28:38;2.05;;;1.17;;
75542;SDS011;64129;53.508;10.476;2023-07-28T10:31:09;1.80;;;1.30;;
75542;SDS011;64129;53.508;10.476;2023-07-28T10:33:40;1.40;;;1.30;;
75542;SDS011;64129;53.508;10.476;2023-07-28T10:39:05;1.50;;;1.23;;
75542;SDS011;64129;53.508;10.476;2023-07-28T10:41:40;1.20;;;1.00;;
75542;SDS011;64129;53.508;10.476;2023-07-28T10:44:25;2.10;;;1.13;;
75542;SDS011;64129;53.508;10.476;2023-07-28T10:46:53;1.10;;;1.00;;
75542;SDS011;64129;53.508;10.476;2023-07-28T10:49:20;1.20;;;1.10;;
75542;SDS011;64129;53.508;10.476;2023-07-28T10:51:47;1.00;;;1.00;;
75542;SDS011;64129;53.508;10.476;2023-07-28T10:54:14;1.00;;;0.90;;
75542;SDS011;64129;53.508;10.476;2023-07-28T10:56:44;1.17;;;1.08;;
75542;SDS011;64129;53.508;10.476;2023-07-28T10:59:11;1.33;;;1.20;;
75542;SDS011;64129;53.508;10.476;2023-07-28T11:01:38;1.17;;;1.02;;
75542;SDS011;64129;53.508;10.476;2023-07-28T11:04:16;1.00;;;1.00;;
75542;SDS011;64129;53.508;10.476;2023-07-28T11:06:45;0.90;;;0.90;;
75542;SDS011;64129;53.508;10.476;2023-07-28T11:09:14;2.72;;;0.80;;
75542;SDS011;64129;53.508;10.476;2023-07-28T11:11:43;0.85;;;0.85;;
75542;SDS011;64129;53.508;10.476;2023-07-28T11:14:11;1.13;;;0.93;;
75542;SDS011;64129;53.508;10.476;2023-07-28T11:16:39;0.98;;;0.88;;
75542;SDS011;64129;53.508;10.476;2023-07-28T11:19:08;0.85;;;0.85;;
75542;SDS011;64129;53.508;10.476;2023-07-28T11:21:43;1.20;;;1.10;;
75542;SDS011;64129;53.508;10.476;2023-07-28T11:24:10;1.27;;;1.17;;
75542;SDS011;64129;53.508;10.476;2023-07-28T11:26:37;1.08;;;1.02;;
75542;SDS011;64129;53.508;10.476;2023-07-28T11:29:05;1.25;;;1.15;;
75542;SDS011;64129;53.508;10.476;2023-07-28T11:31:32;1.08;;;1.00;;
75542;SDS011;64129;53.508;10.476;2023-07-28T11:36:27;1.20;;;1.10;;
75542;SDS011;64129;53.508;10.476;2023-07-28T11:38:56;0.80;;;0.80;;
75542;SDS011;64129;53.508;10.476;2023-07-28T11:41:25;1.10;;;0.98;;
75542;SDS011;64129;53.508;10.476;2023-07-28T11:43:53;1.08;;;0.90;;
75542;SDS011;64129;53.508;10.476;2023-07-28T11:46:35;2.65;;;0.85;;
75542;SDS011;64129;53.508;10.476;2023-07-28T11:49:13;1.70;;;0.93;;
75542;SDS011;64129;53.508;10.476;2023-07-28T11:51:51;1.10;;;1.00;;
75542;SDS011;64129;53.508;10.476;2023-07-28T11:54:24;1.90;;;1.00;;
75542;SDS011;64129;53.508;10.476;2023-07-28T11:56:54;0.90;;;0.90;;
75542;SDS011;64129;53.508;10.476;2023-07-28T11:59:21;0.95;;;0.93;;
75542;SDS011;64129;53.508;10.476;2023-07-28T12:01:55;0.80;;;0.80;;
75542;SDS011;64129;53.508;10.476;2023-07-28T12:04:30;1.33;;;1.00;;
75542;SDS011;64129;53.508;10.476;2023-07-28T12:09:29;1.05;;;1.05;;
75542;SDS011;64129;53.508;10.476;2023-07-28T12:11:59;0.90;;;0.85;;
75542;SDS011;64129;53.508;10.476;2023-07-28T12:14:31;2.53;;;1.35;;
75542;SDS011;64129;53.508;10.476;2023-07-28T12:17:11;0.82;;;0.82;;
75542;SDS011;64129;53.508;10.476;2023-07-28T12:20:03;2.20;;;1.15;;
75542;SDS011;64129;53.508;10.476;2023-07-28T12:22:37;0.90;;;0.90;;
75542;SDS011;64129;53.508;10.476;2023-07-28T12:25:05;1.10;;;1.02;;
75542;SDS011;64129;53.508;10.476;2023-07-28T12:27:32;1.30;;;1.20;;
75542;SDS011;64129;53.508;10.476;2023-07-28T12:29:58;0.98;;;0.98;;
75542;SDS011;64129;53.508;10.476;2023-07-28T12:32:27;1.40;;;0.90;;
75542;SDS011;64129;53.508;10.476;2023-07-28T12:35:00;0.82;;;0.82;;
75542;SDS011;64129;53.508;10.476;2023-07-28T12:37:39;0.90;;;0.90;;
75542;SDS011;64129;53.508;10.476;2023-07-28T12:40:09;1.40;;;1.00;;
75542;SDS011;64129;53.508;10.476;2023-07-28T12:42:57;1.30;;;1.10;;
75542;SDS011;64129;53.508;10.476;2023-07-28T12:45:27;1.30;;;1.20;;
75542;SDS011;64129;53.508;10.476;2023-07-28T12:48:14;1.10;;;1.00;;
75542;SDS011;64129;53.508;10.476;2023-07-28T12:50:43;1.55;;;0.88;;
75542;SDS011;64129;53.508;10.476;2023-07-28T12:53:10;1.10;;;1.00;;
75542;SDS011;64129;53.508;10.476;2023-07-28T12:55:39;1.33;;;1.23;;
75542;SDS011;64129;53.508;10.476;2023-07-28T12:58:25;1.08;;;1.05;;
75542;SDS011;64129;53.508;10.476;2023-07-28T13:00:54;1.10;;;1.00;;
75542;SDS011;64129;53.508;10.476;2023-07-28T13:03:25;1.27;;;1.17;;
75542;SDS011;64129;53.508;10.476;2023-07-28T13:05:52;2.63;;;1.02;;
75542;SDS011;64129;53.508;10.476;2023-07-28T13:08:18;2.15;;;1.15;;
75542;SDS011;64129;53.508;10.476;2023-07-28T13:11:05;1.27;;;1.17;;
75542;SDS011;64129;53.508;10.476;2023-07-28T13:13:34;2.70;;;1.52;;
75542;SDS011;64129;53.508;10.476;2023-07-28T13:16:04;1.35;;;1.10;;
75542;SDS011;64129;53.508;10.476;2023-07-28T13:18:31;1.20;;;1.10;;
75542;SDS011;64129;53.508;10.476;2023-07-28T13:20:58;1.92;;;1.10;;
75542;SDS011;64129;53.508;10.476;2023-07-28T13:23:25;2.25;;;1.75;;
75542;SDS011;64129;53.508;10.476;2023-07-28T13:25:52;1.20;;;1.10;;
75542;SDS011;64129;53.508;10.476;2023-07-28T13:28:18;2.42;;;1.48;;
75542;SDS011;64129;53.508;10.476;2023-07-28T13:30:45;1.40;;;1.30;;
75542;SDS011;64129;53.508;10.476;2023-07-28T13:33:11;1.27;;;1.17;;
75542;SDS011;64129;53.508;10.476;2023-07-28T13:35:38;1.50;;;1.40;;
75542;SDS011;64129;53.508;10.476;2023-07-28T13:38:04;1.42;;;1.30;;
75542;SDS011;64129;53.508;10.476;2023-07-28T13:40:31;1.40;;;1.23;;
75542;SDS011;64129;53.508;10.476;2023-07-28T13:42:58;1.40;;;1.30;;
75542;SDS011;64129;53.508;10.476;2023-07-28T13:45:25;1.20;;;1.10;;
75542;SDS011;64129;53.508;10.476;2023-07-28T13:47:51;1.45;;;1.35;;
75542;SDS011;64129;53.508;10.476;2023-07-28T13:50:18;1.60;;;1.50;;
75542;SDS011;64129;53.508;10.476;2023-07-28T13:52:44;1.15;;;1.15;;
75542;SDS011;64129;53.508;10.476;2023-07-28T13:55:15;1.33;;;1.23;;
75542;SDS011;64129;53.508;10.476;2023-07-28T13:57:41;1.40;;;1.30;;
75542;SDS011;64129;53.508;10.476;2023-07-28T14:00:08;1.80;;;1.38;;
75542;SDS011;64129;53.508;10.476;2023-07-28T14:02:36;1.30;;;1.20;;
75542;SDS011;64129;53.508;10.476;2023-07-28T14:05:03;2.15;;;1.50;;
75542;SDS011;64129;53.508;10.476;2023-07-28T14:07:30;1.40;;;1.30;;
75542;SDS011;64129;53.508;10.476;2023-07-28T14:09:57;1.98;;;1.75;;
75542;SDS011;64129;53.508;10.476;2023-07-28T14:12:23;1.83;;;1.58;;
75542;SDS011;64129;53.508;10.476;2023-07-28T14:14:50;1.85;;;1.50;;
75542;SDS011;64129;53.508;10.476;2023-07-28T14:17:16;1.15;;;1.15;;
75542;SDS011;64129;53.508;10.476;2023-07-28T14:19:43;1.92;;;1.83;;
75542;SDS011;64129;53.508;10.476;2023-07-28T14:22:09;2.63;;;1.50;;
75542;SDS011;64129;53.508;10.476;2023-07-28T14:24:37;1.45;;;1.35;;
75542;SDS011;64129;53.508;10.476;2023-07-28T14:27:04;1.50;;;1.40;;
75542;SDS011;64129;53.508;10.476;2023-07-28T14:29:31;2.17;;;1.55;;
75542;SDS011;64129;53.508;10.476;2023-07-28T14:31:57;1.50;;;1.40;;
75542;SDS011;64129;53.508;10.476;2023-07-28T14:34:24;2.08;;;1.45;;
75542;SDS011;64129;53.508;10.476;2023-07-28T14:36:51;1.90;;;1.80;;
75542;SDS011;64129;53.508;10.476;2023-07-28T14:39:17;1.48;;;1.30;;
75542;SDS011;64129;53.508;10.476;2023-07-28T14:41:44;2.25;;;1.65;;
75542;SDS011;64129;53.508;10.476;2023-07-28T14:44:10;1.52;;;1.42;;
75542;SDS011;64129;53.508;10.476;2023-07-28T14:46:37;1.42;;;1.33;;
75542;SDS011;64129;53.508;10.476;2023-07-28T14:49:03;1.20;;;1.10;;
75542;SDS011;64129;53.508;10.476;2023-07-28T14:51:30;1.50;;;1.40;;